createdAt,value
2022-11-24T00:01:37.568Z,88.10
2022-11-24T00:04:07.074Z,88.01
2022-11-24T00:06:36.325Z,88.01
2022-11-24T00:09:05.875Z,87.43
2022-11-24T00:11:35.669Z,87.71
2022-11-24T00:14:04.519Z,87.83
2022-11-24T00:16:35.266Z,87.37
2022-11-24T00:19:04.494Z,87.52
2022-11-24T00:21:33.370Z,87.12
2022-11-24T00:24:01.411Z,87.22
2022-11-24T00:26:31.105Z,87.43
2022-11-24T00:29:00.358Z,87.68
2022-11-24T00:31:30.374Z,87.39
2022-11-24T00:34:01.902Z,87.21
2022-11-24T00:36:31.712Z,87.13
2022-11-24T00:39:00.953Z,86.96
2022-11-24T00:41:30.250Z,86.64
2022-11-24T00:43:59.413Z,86.75
2022-11-24T00:46:28.196Z,87.01
2022-11-24T00:48:56.313Z,87.11
2022-11-24T00:51:29.759Z,87.13
2022-11-24T00:53:57.871Z,87.04
2022-11-24T00:56:26.266Z,87.20
2022-11-24T00:58:54.026Z,86.91
2022-11-24T01:01:23.694Z,87.28
2022-11-24T01:03:51.627Z,87.13
2022-11-24T01:06:21.023Z,87.17
2022-11-24T01:08:50.071Z,87.27
2022-11-24T01:11:20.302Z,87.87
2022-11-24T01:13:50.809Z,87.62
2022-11-24T01:16:21.627Z,87.61
2022-11-24T01:18:49.601Z,87.71
2022-11-24T01:21:18.485Z,87.70
2022-11-24T01:23:46.598Z,87.38
2022-11-24T01:26:17.083Z,87.33
2022-11-24T01:28:47.428Z,87.45
2022-11-24T01:31:16.287Z,87.69
2022-11-24T01:33:44.144Z,87.35
2022-11-24T01:36:12.166Z,86.50
2022-11-24T01:38:39.878Z,86.28
2022-11-24T01:41:11.656Z,86.55
2022-11-24T01:43:41.564Z,86.94
2022-11-24T01:46:18.380Z,87.21
2022-11-24T01:48:49.854Z,86.66
2022-11-24T01:51:22.565Z,86.33
2022-11-24T01:53:56.636Z,86.36
2022-11-24T01:56:25.394Z,85.98
2022-11-24T01:58:57.950Z,86.82
2022-11-24T02:01:26.554Z,86.55
2022-11-24T02:03:54.661Z,86.97
2022-11-24T02:06:25.919Z,86.48
2022-11-24T02:08:59.770Z,86.54
2022-11-24T02:11:30.341Z,86.25
2022-11-24T02:13:59.954Z,86.82
2022-11-24T02:16:27.789Z,86.69
2022-11-24T02:18:55.434Z,86.51
2022-11-24T02:21:23.235Z,86.86
2022-11-24T02:23:58.584Z,86.20
2022-11-24T02:26:42.244Z,86.78
2022-11-24T02:29:10.347Z,86.46
2022-11-24T02:31:38.457Z,86.58
2022-11-24T02:34:06.172Z,86.35
2022-11-24T02:36:33.836Z,86.65
2022-11-24T02:39:01.549Z,86.72
2022-11-24T02:41:30.150Z,86.21
2022-11-24T02:44:02.565Z,86.30
2022-11-24T02:46:30.295Z,86.36
2022-11-24T02:48:57.993Z,86.11
2022-11-24T02:51:25.641Z,86.26
2022-11-24T02:53:53.207Z,86.41
2022-11-24T02:56:20.939Z,86.33
2022-11-24T02:58:48.580Z,86.24
2022-11-24T03:01:17.647Z,86.01
2022-11-24T03:03:45.729Z,85.91
2022-11-24T03:06:13.313Z,86.24
2022-11-24T03:08:41.062Z,86.61
2022-11-24T03:11:08.664Z,86.33
2022-11-24T03:13:36.334Z,86.33
2022-11-24T03:16:04.053Z,86.00
2022-11-24T03:18:33.136Z,86.40
2022-11-24T03:21:01.008Z,86.60
2022-11-24T03:23:28.684Z,86.37
2022-11-24T03:25:56.280Z,86.25
2022-11-24T03:28:23.926Z,85.85
2022-11-24T03:30:51.695Z,85.80
2022-11-24T03:33:19.419Z,85.43
2022-11-24T03:35:48.421Z,85.69
2022-11-24T03:38:16.075Z,85.92
2022-11-24T03:40:43.700Z,86.31
2022-11-24T03:43:11.362Z,86.63
2022-11-24T03:45:45.939Z,86.00
2022-11-24T03:48:14.537Z,85.71
2022-11-24T03:50:42.273Z,85.89
2022-11-24T03:53:11.812Z,85.99
2022-11-24T03:55:39.493Z,85.70
2022-11-24T03:58:07.218Z,85.63
2022-11-24T04:00:34.883Z,85.73
2022-11-24T04:03:03.182Z,85.68
2022-11-24T04:05:31.104Z,85.92
2022-11-24T04:08:02.792Z,85.83
2022-11-24T04:10:33.198Z,86.43
2022-11-24T04:12:59.856Z,86.25
2022-11-24T04:15:27.561Z,86.13
2022-11-24T04:17:56.597Z,86.35
2022-11-24T04:20:24.505Z,85.96
2022-11-24T04:22:52.481Z,86.06
2022-11-24T04:25:20.304Z,85.64
2022-11-24T04:27:52.941Z,85.32
2022-11-24T04:30:21.784Z,85.31
2022-11-24T04:32:49.842Z,85.40
2022-11-24T04:35:17.980Z,86.62
2022-11-24T04:37:45.679Z,87.39
2022-11-24T04:40:13.902Z,88.22
2022-11-24T04:42:41.605Z,88.76
2022-11-24T04:45:12.166Z,88.49
2022-11-24T04:47:39.813Z,89.06
2022-11-24T04:50:08.722Z,89.34
2022-11-24T04:52:36.513Z,89.25
2022-11-24T04:55:04.159Z,88.87
2022-11-24T04:57:31.834Z,88.89
2022-11-24T04:59:59.493Z,89.20
2022-11-24T05:02:28.563Z,89.80
2022-11-24T05:04:56.310Z,88.98
2022-11-24T05:07:24.116Z,89.42
2022-11-24T05:10:09.220Z,88.33
2022-11-24T05:12:36.949Z,88.79
2022-11-24T05:15:06.350Z,88.63
2022-11-24T05:17:37.179Z,88.70
2022-11-24T05:20:06.983Z,88.85
2022-11-24T05:22:34.736Z,88.77
2022-11-24T05:25:02.883Z,88.50
2022-11-24T05:27:30.604Z,88.00
2022-11-24T05:29:58.241Z,87.91
2022-11-24T05:32:25.929Z,87.88
2022-11-24T05:34:55.130Z,88.09
2022-11-24T05:37:22.787Z,87.05
2022-11-24T05:39:50.688Z,87.36
2022-11-24T05:42:46.542Z,86.91
2022-11-24T05:45:17.007Z,86.15
2022-11-24T05:47:44.690Z,86.46
2022-11-24T05:50:16.234Z,86.04
2022-11-24T05:52:44.360Z,86.09
2022-11-24T05:55:13.318Z,86.24
2022-11-24T05:57:40.991Z,86.41
2022-11-24T06:00:10.529Z,86.09
2022-11-24T06:02:38.323Z,86.26
2022-11-24T06:05:06.582Z,86.21
2022-11-24T06:07:35.739Z,85.87
2022-11-24T06:10:03.452Z,86.00
2022-11-24T06:12:31.113Z,85.97
2022-11-24T06:14:58.805Z,85.66
2022-11-24T06:17:26.477Z,85.90
2022-11-24T06:19:54.238Z,85.10
2022-11-24T06:22:21.943Z,85.35
2022-11-24T06:24:51.284Z,85.49
2022-11-24T06:27:19.293Z,85.51
2022-11-24T06:29:47.573Z,85.00
2022-11-24T06:32:15.379Z,85.29
2022-11-24T06:34:43.281Z,85.13
2022-11-24T06:37:11.235Z,85.46
2022-11-24T06:39:38.875Z,85.05
2022-11-24T06:42:07.961Z,85.09
2022-11-24T06:44:35.994Z,85.17
2022-11-24T06:47:03.835Z,84.69
2022-11-24T06:49:31.490Z,84.64
2022-11-24T06:51:59.138Z,84.53
2022-11-24T06:54:26.786Z,84.82
2022-11-24T06:56:57.380Z,84.67
2022-11-24T06:59:27.718Z,84.75
2022-11-24T07:01:55.533Z,84.55
2022-11-24T07:04:23.219Z,84.44
2022-11-24T07:06:50.861Z,84.52
2022-11-24T07:09:18.620Z,84.03
2022-11-24T07:11:46.315Z,84.35
2022-11-24T07:14:13.980Z,84.13
2022-11-24T07:16:43.401Z,83.78
2022-11-24T07:19:11.701Z,83.34
2022-11-24T07:21:39.326Z,83.77
2022-11-24T07:24:07.830Z,82.86
2022-11-24T07:26:37.418Z,83.95
2022-11-24T07:29:06.063Z,83.53
2022-11-24T07:31:33.967Z,83.82
2022-11-24T07:34:03.049Z,84.13
2022-11-24T07:36:30.780Z,83.96
2022-11-24T07:38:58.599Z,84.16
2022-11-24T07:41:26.519Z,83.29
2022-11-24T07:43:54.212Z,82.47
2022-11-24T07:46:22.147Z,83.17
2022-11-24T07:48:49.889Z,81.76
2022-11-24T07:51:18.930Z,82.03
2022-11-24T07:53:46.740Z,82.03
2022-11-24T07:56:14.546Z,82.41
2022-11-24T07:58:42.362Z,82.25
2022-11-24T08:01:12.191Z,81.86
2022-11-24T08:03:39.914Z,81.50
2022-11-24T08:06:23.938Z,81.64
2022-11-24T08:08:54.410Z,81.47
2022-11-24T08:11:22.474Z,81.93
2022-11-24T08:13:50.174Z,81.63
2022-11-24T08:16:19.690Z,81.35
2022-11-24T08:18:50.900Z,80.71
2022-11-24T08:21:18.564Z,81.91
2022-11-24T08:23:46.399Z,80.89
2022-11-24T08:26:19.241Z,81.89
2022-11-24T08:28:47.933Z,80.94
2022-11-24T08:31:18.651Z,81.28
2022-11-24T08:33:47.002Z,81.23
2022-11-24T08:36:16.939Z,80.84
2022-11-24T08:38:45.626Z,81.01
2022-11-24T08:41:16.954Z,80.76
2022-11-24T08:43:45.081Z,80.77
2022-11-24T08:46:17.090Z,80.39
2022-11-24T08:48:48.153Z,80.19
2022-11-24T08:51:17.160Z,80.63
2022-11-24T08:53:45.035Z,79.89
2022-11-24T08:56:14.286Z,80.22
2022-11-24T08:58:43.578Z,80.38
2022-11-24T09:01:13.201Z,80.26
2022-11-24T09:03:48.241Z,80.52
2022-11-24T09:06:18.643Z,81.05
2022-11-24T09:08:46.314Z,82.15
2022-11-24T09:11:17.212Z,82.18
2022-11-24T09:13:46.608Z,82.99
2022-11-24T09:16:16.330Z,82.71
2022-11-24T09:18:44.314Z,83.23
2022-11-24T09:21:14.032Z,83.31
2022-11-24T09:23:42.147Z,83.56
2022-11-24T09:26:11.819Z,83.26
2022-11-24T09:28:39.686Z,83.53
2022-11-24T09:31:10.324Z,83.63
2022-11-24T09:33:38.608Z,83.65
2022-11-24T09:36:07.269Z,83.65
2022-11-24T09:38:35.340Z,83.68
2022-11-24T09:41:56.939Z,83.31
2022-11-24T09:44:57.099Z,82.68
2022-11-24T09:47:39.443Z,82.44
2022-11-24T09:50:12.174Z,82.26
2022-11-24T09:52:42.301Z,83.45
2022-11-24T09:55:26.323Z,82.39
2022-11-24T09:58:03.108Z,82.16
2022-11-24T10:00:31.274Z,82.04
2022-11-24T10:03:00.313Z,82.10
2022-11-24T10:05:32.985Z,81.97
2022-11-24T10:08:11.828Z,82.25
2022-11-24T10:10:50.042Z,82.02
2022-11-24T10:13:31.699Z,82.46
2022-11-24T10:16:12.096Z,82.16
2022-11-24T10:18:55.462Z,82.24
2022-11-24T10:21:50.210Z,82.39
2022-11-24T10:24:33.203Z,82.29
2022-11-24T10:27:03.847Z,82.49
2022-11-24T10:29:37.547Z,82.17
2022-11-24T10:32:08.920Z,81.98
2022-11-24T10:34:41.417Z,81.95
2022-11-24T10:37:16.970Z,82.22
2022-11-24T10:39:58.532Z,82.13
2022-11-24T10:42:29.898Z,82.56
2022-11-24T10:45:02.284Z,82.42
2022-11-24T10:47:30.924Z,82.79
2022-11-24T10:50:03.821Z,81.86
2022-11-24T10:52:37.855Z,82.70
2022-11-24T10:55:07.150Z,81.79
2022-11-24T10:57:36.474Z,81.34
2022-11-24T11:00:26.266Z,80.65
2022-11-24T11:03:13.130Z,79.82
2022-11-24T11:05:45.401Z,79.14
2022-11-24T11:08:20.339Z,79.89
2022-11-24T11:10:49.774Z,80.11
2022-11-24T11:13:26.385Z,78.89
2022-11-24T11:15:54.148Z,79.61
2022-11-24T11:18:22.685Z,79.58
2022-11-24T11:20:54.618Z,79.41
2022-11-24T11:23:26.712Z,78.63
2022-11-24T11:26:19.045Z,78.05
2022-11-24T11:31:15.304Z,79.14
2022-11-24T11:34:49.943Z,78.00
2022-11-24T11:37:19.950Z,76.66
2022-11-24T11:39:49.347Z,76.22
2022-11-24T11:42:53.841Z,75.85
2022-11-24T11:45:15.362Z,75.55
2022-11-24T11:47:47.765Z,76.17
2022-11-24T11:50:17.506Z,74.84
2022-11-24T11:52:57.830Z,75.29
2022-11-24T11:55:50.136Z,74.58
2022-11-24T11:58:59.358Z,75.62
2022-11-24T12:01:42.769Z,75.37
2022-11-24T12:04:32.264Z,75.55
2022-11-24T12:07:14.554Z,75.58
2022-11-24T12:09:57.541Z,75.07
2022-11-24T12:12:51.058Z,75.46
2022-11-24T12:15:29.941Z,75.37
2022-11-24T12:18:26.832Z,75.40
2022-11-24T12:21:08.658Z,75.51
2022-11-24T12:23:47.112Z,74.77
2022-11-24T12:26:24.165Z,74.91
2022-11-24T12:29:03.643Z,73.90
2022-11-24T12:31:43.146Z,74.13
2022-11-24T12:34:26.614Z,74.78
2022-11-24T12:37:12.143Z,74.50
2022-11-24T12:39:49.135Z,73.99
2022-11-24T12:42:31.561Z,73.17
2022-11-24T12:45:14.152Z,74.12
2022-11-24T12:48:09.657Z,73.36
2022-11-24T12:50:40.006Z,74.06
2022-11-24T12:53:14.671Z,74.23
2022-11-24T12:55:43.429Z,73.78
2022-11-24T12:58:19.398Z,73.63
2022-11-24T13:01:02.618Z,73.66
2022-11-24T13:03:41.002Z,73.03
2022-11-24T13:06:16.731Z,73.51
2022-11-24T13:08:44.894Z,72.71
2022-11-24T13:11:38.508Z,72.41
2022-11-24T13:14:13.877Z,72.75
2022-11-24T13:17:13.407Z,72.61
2022-11-24T13:19:38.853Z,71.33
2022-11-24T13:22:23.170Z,69.64
2022-11-24T13:25:13.816Z,69.08
2022-11-24T13:27:45.097Z,68.80
2022-11-24T13:30:49.511Z,69.71
2022-11-24T13:33:31.904Z,67.45
2022-11-24T13:36:38.146Z,67.25
2022-11-24T13:39:20.796Z,67.31
2022-11-24T13:42:06.465Z,69.04
2022-11-24T13:44:51.863Z,67.98
2022-11-24T13:47:41.163Z,68.66
2022-11-24T13:50:15.402Z,69.54
2022-11-24T13:52:47.322Z,69.10
2022-11-24T13:55:25.906Z,68.90
2022-11-24T13:57:56.472Z,69.34
2022-11-24T14:00:26.913Z,69.16
2022-11-24T14:02:58.771Z,68.63
2022-11-24T14:05:35.299Z,67.67
2022-11-24T14:08:03.486Z,68.34
2022-11-24T14:10:35.786Z,69.00
2022-11-24T14:13:26.449Z,68.68
2022-11-24T14:16:05.986Z,69.34
2022-11-24T14:18:35.561Z,68.50
2022-11-24T14:21:24.178Z,69.25
2022-11-24T14:23:54.404Z,69.49
2022-11-24T14:26:24.013Z,69.37
2022-11-24T14:28:52.654Z,68.33
2022-11-24T14:31:23.568Z,67.88
2022-11-24T14:33:51.808Z,68.90
2022-11-24T14:36:20.894Z,68.95
2022-11-24T14:38:49.895Z,69.77
2022-11-24T14:41:28.178Z,69.96
2022-11-24T14:44:08.428Z,70.75
2022-11-24T14:46:37.012Z,71.10
2022-11-24T14:49:05.397Z,71.65
2022-11-24T14:51:36.532Z,72.48
2022-11-24T14:54:06.802Z,72.35
2022-11-24T14:56:36.513Z,72.58
2022-11-24T14:59:05.282Z,72.99
2022-11-24T15:01:36.092Z,73.69
2022-11-24T15:04:46.213Z,73.51
2022-11-24T15:07:17.265Z,73.95
2022-11-24T15:09:52.751Z,74.03
2022-11-24T15:12:29.061Z,73.78
2022-11-24T15:15:00.447Z,73.99
2022-11-24T15:17:29.836Z,74.33
2022-11-24T15:20:01.730Z,74.90
2022-11-24T15:22:40.479Z,74.92
2022-11-24T15:25:29.080Z,75.37
2022-11-24T15:27:57.061Z,75.20
2022-11-24T15:30:24.926Z,75.33
2022-11-24T15:32:54.021Z,75.85
2022-11-24T15:35:22.717Z,76.39
2022-11-24T15:37:52.162Z,76.25
2022-11-24T15:40:20.377Z,76.47
2022-11-24T15:42:52.428Z,76.86
2022-11-24T15:45:21.384Z,77.02
2022-11-24T15:47:49.265Z,77.73
2022-11-24T15:50:17.811Z,77.97
2022-11-24T15:52:46.229Z,78.49
2022-11-24T15:55:18.423Z,78.98
2022-11-24T15:57:46.589Z,79.12
2022-11-24T16:00:19.373Z,79.28
2022-11-24T16:02:47.814Z,79.38
2022-11-24T16:05:16.911Z,78.97
2022-11-24T16:07:45.643Z,79.29
2022-11-24T16:10:24.003Z,79.90
2022-11-24T16:12:51.708Z,80.24
2022-11-24T16:15:19.463Z,82.41
2022-11-24T16:17:48.016Z,81.01
2022-11-24T16:20:16.111Z,81.28
2022-11-24T16:22:44.036Z,80.29
2022-11-24T16:25:12.376Z,80.28
2022-11-24T16:27:41.888Z,80.50
2022-11-24T16:30:13.194Z,80.53
2022-11-24T16:32:41.037Z,80.92
2022-11-24T16:35:09.261Z,81.40
2022-11-24T16:37:36.967Z,81.22
2022-11-24T16:40:05.073Z,81.67
2022-11-24T16:42:32.748Z,82.32
2022-11-24T16:45:01.848Z,82.72
2022-11-24T16:47:29.561Z,83.05
2022-11-24T16:49:57.363Z,82.97
2022-11-24T16:52:25.062Z,82.95
2022-11-24T16:54:52.729Z,82.48
2022-11-24T16:57:20.371Z,82.72
2022-11-24T16:59:48.022Z,82.61
2022-11-24T17:02:17.289Z,82.25
2022-11-24T17:04:45.251Z,83.05
2022-11-24T17:07:13.740Z,83.30
2022-11-24T17:09:41.484Z,84.54
2022-11-24T17:12:09.129Z,84.77
2022-11-24T17:14:37.354Z,84.38
2022-11-24T17:17:05.272Z,83.89
2022-11-24T17:19:34.364Z,85.74
2022-11-24T17:22:02.038Z,84.97
2022-11-24T17:24:29.720Z,84.69
2022-11-24T17:26:57.358Z,86.00
2022-11-24T17:29:25.773Z,85.46
2022-11-24T17:31:53.513Z,85.85
2022-11-24T17:34:21.384Z,85.17
2022-11-24T17:36:50.425Z,85.18
2022-11-24T17:39:23.212Z,84.67
2022-11-24T17:41:52.501Z,83.24
2022-11-24T17:44:20.275Z,82.78
2022-11-24T17:46:47.974Z,82.94
2022-11-24T17:49:15.642Z,82.37
2022-11-24T17:51:46.136Z,81.61
2022-11-24T17:57:02.940Z,80.75
2022-11-24T17:59:30.585Z,80.27
2022-11-24T18:01:58.392Z,79.79
2022-11-24T18:04:26.126Z,79.52
2022-11-24T18:06:53.931Z,79.44
2022-11-24T18:09:22.998Z,78.90
2022-11-24T18:11:51.998Z,79.12
2022-11-24T18:14:19.780Z,78.97
2022-11-24T18:16:47.530Z,79.29
2022-11-24T18:19:15.340Z,78.31
2022-11-24T18:21:44.616Z,78.68
2022-11-24T18:24:13.643Z,79.05
2022-11-24T18:26:44.041Z,78.92
2022-11-24T18:29:12.806Z,78.83
2022-11-24T18:31:41.175Z,78.11
2022-11-24T18:34:09.191Z,78.85
2022-11-24T18:36:37.171Z,78.15
2022-11-24T18:39:06.360Z,77.89
2022-11-24T18:41:34.268Z,77.34
2022-11-24T18:44:07.703Z,77.53
2022-11-24T18:46:35.653Z,76.45
2022-11-24T18:49:03.394Z,76.55
2022-11-24T18:51:31.177Z,76.90
2022-11-24T18:53:58.996Z,76.89
2022-11-24T18:56:27.035Z,76.31
2022-11-24T18:58:56.135Z,76.92
2022-11-24T19:01:27.137Z,77.00
2022-11-24T19:03:56.698Z,77.07
2022-11-24T19:06:28.769Z,77.02
2022-11-24T19:08:57.088Z,76.83
2022-11-24T19:11:26.487Z,76.93
2022-11-24T19:13:54.113Z,76.99
2022-11-24T19:16:22.305Z,77.47
2022-11-24T19:18:54.094Z,77.44
2022-11-24T19:21:22.972Z,77.73
2022-11-24T19:23:50.663Z,77.78
2022-11-24T19:26:18.659Z,77.91
2022-11-24T19:28:46.914Z,77.10
2022-11-24T19:31:16.116Z,77.40
2022-11-24T19:33:44.676Z,77.90
2022-11-24T19:36:15.308Z,77.78
2022-11-24T19:38:43.909Z,78.26
2022-11-24T19:41:13.384Z,78.29
2022-11-24T19:43:41.983Z,78.27
2022-11-24T19:46:11.579Z,78.29
2022-11-24T19:48:41.286Z,78.44
2022-11-24T19:51:12.959Z,78.71
2022-11-24T19:53:43.240Z,78.44
2022-11-24T19:56:13.266Z,78.11
2022-11-24T19:58:41.554Z,78.34
2022-11-24T20:01:10.367Z,78.32
2022-11-24T20:03:39.292Z,78.56
2022-11-24T20:06:08.707Z,78.24
2022-11-24T20:08:37.708Z,78.10
2022-11-24T20:11:08.002Z,78.46
2022-11-24T20:13:37.324Z,78.27
2022-11-24T20:16:05.632Z,78.31
2022-11-24T20:18:38.899Z,78.68
2022-11-24T20:21:12.328Z,78.42
2022-11-24T20:23:40.456Z,78.61
2022-11-24T20:26:11.319Z,79.50
2022-11-24T20:28:39.243Z,79.51
2022-11-24T20:31:09.122Z,79.44
2022-11-24T20:33:37.524Z,79.45
2022-11-24T20:36:06.892Z,79.14
2022-11-24T20:38:35.738Z,79.36
2022-11-24T20:41:09.049Z,79.27
2022-11-24T20:43:39.009Z,79.42
2022-11-24T20:46:09.107Z,79.42
2022-11-24T20:48:37.900Z,79.92
2022-11-24T20:51:06.335Z,79.55
2022-11-24T20:53:34.852Z,79.79
2022-11-24T20:56:06.207Z,79.95
2022-11-24T20:58:35.382Z,79.46
2022-11-24T21:01:10.526Z,79.65
2022-11-24T21:03:43.021Z,79.71
2022-11-24T21:06:13.400Z,79.98
2022-11-24T21:08:42.676Z,79.75
2022-11-24T21:11:12.401Z,80.06
2022-11-24T21:13:41.916Z,79.75
2022-11-24T21:16:16.293Z,79.71
2022-11-24T21:18:45.628Z,79.53
2022-11-24T21:21:14.364Z,79.87
2022-11-24T21:23:42.269Z,79.87
2022-11-24T21:26:16.323Z,80.10
2022-11-24T21:28:46.198Z,80.23
2022-11-24T21:31:17.938Z,80.58
2022-11-24T21:33:47.413Z,80.64
2022-11-24T21:36:17.778Z,80.77
2022-11-24T21:38:50.162Z,80.82
2022-11-24T21:41:18.389Z,80.81
2022-11-24T21:43:46.146Z,80.64
2022-11-24T21:46:15.816Z,81.28
2022-11-24T21:48:43.789Z,81.38
2022-11-24T21:51:14.384Z,81.21
2022-11-24T21:53:43.134Z,81.53
2022-11-24T21:56:13.674Z,81.79
2022-11-24T21:58:46.543Z,82.43
2022-11-24T22:01:17.191Z,82.22
2022-11-24T22:03:45.780Z,82.21
2022-11-24T22:06:14.155Z,82.56
2022-11-24T22:08:41.891Z,82.75
2022-11-24T22:11:12.951Z,83.09
2022-11-24T22:13:40.952Z,83.14
2022-11-24T22:16:11.398Z,83.49
2022-11-24T22:18:42.174Z,83.70
2022-11-24T22:21:12.819Z,83.36
2022-11-24T22:23:40.998Z,83.25
2022-11-24T22:26:12.580Z,83.48
2022-11-24T22:28:40.624Z,83.31
2022-11-24T22:31:10.174Z,83.69
2022-11-24T22:33:37.872Z,83.96
2022-11-24T22:36:07.919Z,84.05
2022-11-24T22:38:36.037Z,83.94
2022-11-24T22:41:04.630Z,83.71
2022-11-24T22:43:33.609Z,83.63
2022-11-24T22:46:05.485Z,84.10
2022-11-24T22:48:33.688Z,84.22
2022-11-24T22:51:06.037Z,84.62
2022-11-24T22:53:35.664Z,84.86
2022-11-24T22:56:04.138Z,84.93
2022-11-24T22:58:31.930Z,85.61
2022-11-24T23:01:05.607Z,86.17
2022-11-24T23:03:33.660Z,85.65
2022-11-24T23:06:01.598Z,85.06
2022-11-24T23:08:31.105Z,85.22
2022-11-24T23:11:04.630Z,85.49
2022-11-24T23:13:32.391Z,85.38
2022-11-24T23:16:03.619Z,85.82
2022-11-24T23:18:31.704Z,86.31
2022-11-24T23:21:05.517Z,85.84
2022-11-24T23:23:33.352Z,85.73
2022-11-24T23:26:01.386Z,85.64
2022-11-24T23:28:30.718Z,84.79
2022-11-24T23:31:01.736Z,84.54
2022-11-24T23:33:29.678Z,84.78
2022-11-24T23:35:57.452Z,84.64
2022-11-24T23:38:28.520Z,84.27
2022-11-24T23:40:56.439Z,84.54
2022-11-24T23:43:24.131Z,84.79
2022-11-24T23:45:53.471Z,84.79
2022-11-24T23:48:21.163Z,84.70
2022-11-24T23:50:49.007Z,84.47
2022-11-24T23:53:16.649Z,84.25
2022-11-24T23:55:44.990Z,83.68
2022-11-24T23:58:12.821Z,83.62
